createdAt,value
2016-08-30T00:00:55.651Z,69.57
2016-08-30T00:01:53.734Z,69.29
2016-08-30T00:02:53.824Z,69.19
2016-08-30T00:03:51.501Z,69.48
2016-08-30T00:04:51.517Z,69.67
2016-08-30T00:05:51.516Z,68.93
2016-08-30T00:06:51.508Z,68.26
2016-08-30T00:07:51.388Z,68.55
2016-08-30T00:08:51.386Z,68.26
2016-08-30T00:09:51.337Z,68.07
2016-08-30T00:10:51.327Z,68.74
2016-08-30T00:11:51.323Z,69.38
2016-08-30T00:12:51.293Z,69.19
2016-08-30T00:13:51.248Z,69.48
2016-08-30T00:14:51.216Z,69.19
2016-08-30T00:15:51.186Z,69.29
2016-08-30T00:16:51.177Z,68.45
2016-08-30T00:17:51.161Z,68.45
2016-08-30T00:18:51.130Z,68.45
2016-08-30T00:19:51.101Z,68.35
2016-08-30T00:20:51.068Z,68.55
2016-08-30T00:22:06.048Z,69.13
2016-08-30T00:22:51.022Z,69.38
2016-08-30T00:24:05.707Z,69.38
2016-08-30T00:24:50.987Z,68.99
2016-08-30T00:26:05.651Z,70.15
2016-08-30T00:26:50.927Z,70.06
2016-08-30T00:27:52.003Z,69.77
2016-08-30T00:28:50.907Z,69.38
2016-08-30T00:29:50.848Z,69.29
2016-08-30T00:30:50.828Z,69.57
2016-08-30T00:31:50.806Z,69.48
2016-08-30T00:32:50.781Z,69.29
2016-08-30T00:33:50.768Z,69.57
2016-08-30T00:34:50.736Z,68.8
2016-08-30T00:35:51.572Z,68.93
2016-08-30T00:36:50.686Z,68.8
2016-08-30T00:37:50.657Z,69.57
2016-08-30T00:38:50.644Z,69.57
2016-08-30T00:39:50.607Z,69.77
2016-08-30T00:40:50.588Z,70.31
2016-08-30T00:42:50.528Z,70.6
2016-08-30T00:43:50.533Z,70.5
2016-08-30T00:44:50.478Z,70.6
2016-08-30T00:45:51.330Z,70.6
2016-08-30T00:46:50.433Z,70.7
2016-08-30T00:47:50.404Z,70.79
2016-08-30T00:48:50.394Z,70.41
2016-08-30T00:49:50.361Z,70.31
2016-08-30T00:51:05.038Z,70.41
2016-08-30T00:51:50.320Z,70.5
2016-08-30T00:52:50.278Z,70.5
2016-08-30T00:53:50.270Z,70.41
2016-08-30T00:54:50.231Z,70.21
2016-08-30T00:55:51.084Z,70.7
2016-08-30T00:56:50.957Z,70.5
2016-08-30T00:57:50.157Z,70.7
2016-08-30T00:58:50.145Z,70.31
2016-08-30T00:59:50.773Z,68.96
2016-08-30T01:00:50.467Z,68.42
2016-08-30T01:01:50.095Z,67.88
2016-08-30T01:02:50.039Z,67.68
2016-08-30T01:03:50.012Z,67.3
2016-08-30T01:04:50.032Z,66.72
2016-08-30T01:05:50.011Z,67.88
2016-08-30T01:06:49.947Z,68.8
2016-08-30T01:07:49.943Z,68.96
2016-08-30T01:09:50.109Z,69.93
2016-08-30T01:10:49.877Z,69.93
2016-08-30T01:11:49.827Z,69.73
2016-08-30T01:12:49.788Z,69.45
2016-08-30T01:13:49.778Z,68.96
2016-08-30T01:14:49.745Z,68.71
2016-08-30T01:15:49.724Z,69.09
2016-08-30T01:16:49.999Z,69.64
2016-08-30T01:17:49.667Z,69.25
2016-08-30T01:18:49.635Z,69.64
2016-08-30T01:19:49.632Z,70.02
2016-08-30T01:20:50.357Z,69.54
2016-08-30T01:21:49.598Z,70.12
2016-08-30T01:22:49.547Z,70.12
2016-08-30T01:23:49.522Z,70.02
2016-08-30T01:24:49.603Z,69.45
2016-08-30T01:25:49.472Z,69.54
2016-08-30T01:26:49.447Z,69.45
2016-08-30T01:27:49.491Z,70.31
2016-08-30T01:28:49.396Z,70.18
2016-08-30T01:29:49.769Z,70.18
2016-08-30T01:30:50.624Z,70.37
2016-08-30T01:31:49.316Z,70.47
2016-08-30T01:32:49.285Z,70.56
2016-08-30T01:33:49.259Z,70.95
2016-08-30T01:34:49.254Z,70.56
2016-08-30T01:35:49.216Z,70.56
2016-08-30T01:36:49.193Z,70.18
2016-08-30T01:37:49.174Z,70.09
2016-08-30T01:38:49.142Z,70.34
2016-08-30T01:39:49.112Z,70.66
2016-08-30T01:40:49.090Z,71.11
2016-08-30T01:41:49.077Z,71.2
2016-08-30T01:42:49.054Z,71.4
2016-08-30T01:43:49.019Z,70.56
2016-08-30T01:44:49.000Z,70.72
2016-08-30T01:45:48.968Z,71.4
2016-08-30T01:47:48.919Z,71.4
2016-08-30T01:49:48.971Z,70.62
2016-08-30T01:50:48.836Z,70.34
2016-08-30T01:51:48.814Z,70.05
2016-08-30T01:52:48.800Z,70.37
2016-08-30T01:53:48.772Z,70.34
2016-08-30T01:54:48.763Z,70.15
2016-08-30T01:55:49.494Z,70.72
2016-08-30T01:56:48.730Z,70.72
2016-08-30T01:57:48.706Z,70.05
2016-08-30T01:58:48.650Z,69.7
2016-08-30T01:59:48.615Z,69.89
2016-08-30T02:00:48.608Z,69.79
2016-08-30T02:01:48.564Z,68.64
2016-08-30T02:02:48.532Z,68.58
2016-08-30T02:03:48.512Z,68
2016-08-30T02:04:48.493Z,67.71
2016-08-30T02:05:48.465Z,68
2016-08-30T02:06:48.439Z,68.48
2016-08-30T02:07:48.455Z,68.48
2016-08-30T02:08:48.437Z,67.42
2016-08-30T02:09:48.476Z,67.52
2016-08-30T02:10:48.445Z,67.33
2016-08-30T02:12:48.497Z,67.52
2016-08-30T02:14:02.966Z,67.61
2016-08-30T02:14:48.413Z,68
2016-08-30T02:15:48.427Z,68.29
2016-08-30T02:16:48.396Z,68.54
2016-08-30T02:17:48.480Z,68.64
2016-08-30T02:18:48.396Z,68.54
2016-08-30T02:19:48.423Z,68.64
2016-08-30T02:22:02.770Z,69.02
2016-08-30T02:22:48.543Z,68.93
2016-08-30T02:24:02.731Z,69.51
2016-08-30T02:24:48.467Z,69.41
2016-08-30T02:25:48.334Z,69.76
2016-08-30T02:27:02.636Z,70.53
2016-08-30T02:27:48.476Z,70.34
2016-08-30T02:29:02.594Z,70.24
2016-08-30T02:30:48.347Z,69.76
2016-08-30T02:32:02.530Z,69.67
2016-08-30T02:32:48.246Z,70.24
2016-08-30T02:34:02.871Z,70.62
2016-08-30T02:34:48.318Z,70.24
2016-08-30T02:35:48.332Z,70.05
2016-08-30T02:36:48.631Z,69.67
2016-08-30T02:37:49.013Z,69.28
2016-08-30T02:38:49.072Z,68.99
2016-08-30T02:39:48.963Z,70.15
2016-08-30T02:40:49.097Z,70.05
2016-08-30T02:41:48.154Z,69.57
2016-08-30T02:42:48.421Z,70.53
2016-08-30T02:43:48.384Z,70.53
2016-08-30T02:45:47.458Z,70.62
2016-08-30T02:47:02.134Z,70.43
2016-08-30T02:47:48.391Z,70.34
2016-08-30T02:49:02.087Z,70.15
2016-08-30T02:49:47.363Z,69.57
2016-08-30T02:51:02.057Z,68.8
2016-08-30T02:51:47.313Z,68.54
2016-08-30T02:52:47.301Z,68.35
2016-08-30T02:53:47.254Z,68.64
2016-08-30T02:54:47.228Z,69.38
2016-08-30T02:55:47.260Z,69.09
2016-08-30T02:56:47.187Z,69.18
2016-08-30T02:57:47.162Z,69.38
2016-08-30T02:58:47.138Z,69.38
2016-08-30T02:59:48.155Z,69.18
2016-08-30T03:00:48.133Z,69.18
2016-08-30T03:01:47.104Z,69.28
2016-08-30T03:02:47.030Z,69.95
2016-08-30T03:03:47.006Z,70.53
2016-08-30T03:04:47.001Z,70.21
2016-08-30T03:06:46.932Z,70.5
2016-08-30T03:08:01.607Z,70.11
2016-08-30T03:08:46.889Z,70.01
2016-08-30T03:09:46.855Z,69.73
2016-08-30T03:10:48.271Z,69.38
2016-08-30T03:11:46.810Z,69.82
2016-08-30T03:12:46.782Z,69.63
2016-08-30T03:13:46.761Z,69.73
2016-08-30T03:14:46.725Z,69.82
2016-08-30T03:15:46.709Z,69.63
2016-08-30T03:16:46.745Z,69.38
2016-08-30T03:17:46.722Z,69.18
2016-08-30T03:18:47.393Z,68.8
2016-08-30T03:19:46.605Z,68.13
2016-08-30T03:20:46.574Z,68.41
2016-08-30T03:21:46.550Z,67.26
2016-08-30T03:22:46.529Z,66.62
2016-08-30T03:24:01.497Z,67.29
2016-08-30T03:24:46.476Z,67.97
2016-08-30T03:25:46.452Z,68.51
2016-08-30T03:26:46.430Z,68.13
2016-08-30T03:27:46.398Z,68.67
2016-08-30T03:28:51.668Z,70.11
2016-08-30T03:29:46.354Z,70.68
2016-08-30T03:31:01.027Z,70.56
2016-08-30T03:31:46.295Z,70.56
2016-08-30T03:32:46.268Z,70.56
2016-08-30T03:33:46.251Z,70.46
2016-08-30T03:34:46.250Z,70.65
2016-08-30T03:35:46.239Z,71.14
2016-08-30T03:36:46.314Z,71.42
2016-08-30T03:37:46.151Z,70.46
2016-08-30T03:38:46.153Z,70.01
2016-08-30T03:39:46.358Z,69.82
2016-08-30T03:40:46.275Z,69.44
2016-08-30T03:41:46.118Z,68.96
2016-08-30T03:42:46.114Z,69.44
2016-08-30T03:44:00.700Z,69.15
2016-08-30T03:44:46.129Z,69.6
2016-08-30T03:45:46.204Z,70.37
2016-08-30T03:47:46.161Z,70.56
2016-08-30T03:48:46.080Z,70.07
2016-08-30T03:49:46.174Z,70.5
2016-08-30T03:50:46.112Z,69.92
2016-08-30T03:52:46.566Z,69.98
2016-08-30T03:54:46.161Z,68.57
2016-08-30T03:58:46.122Z,70.37
2016-08-30T04:01:46.074Z,71.33
2016-08-30T04:03:46.126Z,70.75
2016-08-30T04:04:45.959Z,71.14
2016-08-30T04:05:45.958Z,71.71
2016-08-30T04:06:46.066Z,71.29
2016-08-30T04:07:46.072Z,72.06
2016-08-30T04:08:45.574Z,71.67
2016-08-30T04:09:46.239Z,71.1
2016-08-30T04:10:45.810Z,71.39
2016-08-30T04:11:45.738Z,71.33
2016-08-30T04:12:45.568Z,71.67
2016-08-30T04:13:45.231Z,72.06
2016-08-30T04:14:45.212Z,71.58
2016-08-30T04:15:46.248Z,71.19
2016-08-30T04:16:46.262Z,71.58
2016-08-30T04:18:46.080Z,71.39
2016-08-30T04:20:45.037Z,71.39
2016-08-30T04:21:59.706Z,70.84
2016-08-30T04:22:44.998Z,70.9
2016-08-30T04:25:59.612Z,69.79
2016-08-30T04:26:44.881Z,69.21
2016-08-30T04:27:44.876Z,68.76
2016-08-30T04:28:44.835Z,68.57
2016-08-30T04:29:44.814Z,69.34
2016-08-30T04:30:44.798Z,68.92
2016-08-30T04:31:44.750Z,69.02
2016-08-30T04:32:44.726Z,69.98
2016-08-30T04:33:44.716Z,69.98
2016-08-30T04:34:44.679Z,69.69
2016-08-30T04:35:44.674Z,69.89
2016-08-30T04:36:44.620Z,70.46
2016-08-30T04:37:44.597Z,70.07
2016-08-30T04:38:44.801Z,70.23
2016-08-30T04:39:44.567Z,69.85
2016-08-30T04:40:44.522Z,70.75
2016-08-30T04:41:44.502Z,70.72
2016-08-30T04:42:44.470Z,71.19
2016-08-30T04:43:44.448Z,71.48
2016-08-30T04:44:44.436Z,71.39
2016-08-30T04:45:44.409Z,71.67
2016-08-30T04:46:44.363Z,71.77
2016-08-30T04:47:45.169Z,71.58
2016-08-30T04:49:44.603Z,71.67
2016-08-30T04:50:58.981Z,71.29
2016-08-30T04:51:44.234Z,71.39
2016-08-30T04:52:44.213Z,71
2016-08-30T04:53:44.175Z,71.19
2016-08-30T04:54:44.836Z,70.56
2016-08-30T04:55:44.141Z,70.37
2016-08-30T04:56:44.935Z,70.33
2016-08-30T04:57:44.075Z,71.33
2016-08-30T04:58:44.048Z,71.29
2016-08-30T04:59:44.039Z,71.1
2016-08-30T05:00:44.780Z,71.1
2016-08-30T05:01:44.014Z,70.33
2016-08-30T05:02:43.949Z,70.33
2016-08-30T05:03:43.937Z,70.52
2016-08-30T05:04:43.913Z,70.43
2016-08-30T05:05:43.921Z,69.79
2016-08-30T05:06:43.904Z,69.69
2016-08-30T05:07:44.650Z,70.07
2016-08-30T05:08:43.809Z,70.33
2016-08-30T05:09:43.766Z,70.04
2016-08-30T05:10:43.753Z,70.33
2016-08-30T05:11:43.739Z,70.81
2016-08-30T05:12:43.716Z,71
2016-08-30T05:13:43.676Z,71.29
2016-08-30T05:14:43.640Z,71.67
2016-08-30T05:15:43.623Z,71.67
2016-08-30T05:16:43.609Z,71.67
2016-08-30T05:17:44.338Z,71.77
2016-08-30T05:18:58.230Z,71.29
2016-08-30T05:19:43.520Z,71.29
2016-08-30T05:20:43.484Z,71.39
2016-08-30T05:21:43.469Z,71.39
2016-08-30T05:22:44.232Z,70.52
2016-08-30T05:23:43.436Z,70.9
2016-08-30T05:24:44.180Z,70.9
2016-08-30T05:25:43.422Z,70.62
2016-08-30T05:26:43.341Z,70.43
2016-08-30T05:27:43.325Z,70.43
2016-08-30T05:28:43.313Z,69.95
2016-08-30T05:29:43.311Z,70.46
2016-08-30T05:30:43.238Z,70.43
2016-08-30T05:31:44.413Z,70.81
2016-08-30T05:32:43.180Z,71.1
2016-08-30T05:33:43.164Z,70.62
2016-08-30T05:34:43.130Z,71.19
2016-08-30T05:35:43.103Z,71.67
2016-08-30T05:36:43.866Z,71.67
2016-08-30T05:37:43.123Z,71.23
2016-08-30T05:38:43.821Z,71.19
2016-08-30T05:39:42.991Z,70.84
2016-08-30T05:40:43.019Z,70.65
2016-08-30T05:41:42.989Z,70.56
2016-08-30T05:42:44.010Z,70.65
2016-08-30T05:43:42.901Z,70.07
2016-08-30T05:44:57.576Z,70.75
2016-08-30T05:45:44.994Z,70.3
2016-08-30T05:46:42.945Z,70.65
2016-08-30T05:47:42.797Z,71.23
2016-08-30T05:48:42.765Z,71.33
2016-08-30T05:49:42.737Z,71.33
2016-08-30T05:50:42.719Z,70.75
2016-08-30T05:51:42.688Z,70.59
2016-08-30T05:52:42.696Z,70.78
2016-08-30T05:53:42.672Z,70.4
2016-08-30T05:57:57.641Z,70.21
2016-08-30T05:58:31.957Z,70.21
2016-08-30T05:59:32.332Z,69.95
2016-08-30T06:00:44.599Z,70.34
2016-08-30T06:01:42.778Z,70.34
2016-08-30T06:02:32.138Z,70.88
2016-08-30T06:03:31.810Z,70.68
2016-08-30T06:04:31.891Z,70.82
2016-08-30T06:05:31.939Z,71.01
2016-08-30T06:06:31.749Z,70.21
2016-08-30T06:07:31.716Z,70.34
2016-08-30T06:08:32.330Z,70.43
2016-08-30T06:09:31.752Z,71.4
2016-08-30T06:10:46.322Z,71.11
2016-08-30T06:11:31.643Z,71.3
2016-08-30T06:12:46.266Z,71.59
2016-08-30T06:13:31.561Z,71.4
2016-08-30T06:14:31.559Z,71.59
2016-08-30T06:15:31.506Z,71.2
2016-08-30T06:16:32.270Z,71.49
2016-08-30T06:17:31.548Z,72.17
2016-08-30T06:18:31.695Z,72.17
2016-08-30T06:19:31.406Z,71.69
2016-08-30T06:20:31.648Z,71.88
2016-08-30T06:21:31.356Z,71.49
2016-08-30T06:22:31.435Z,71.01
2016-08-30T06:23:31.510Z,71.4
2016-08-30T06:24:32.044Z,71.49
2016-08-30T06:25:31.240Z,71.72
2016-08-30T06:26:31.995Z,71.62
2016-08-30T06:27:32.643Z,71.69
2016-08-30T06:28:31.188Z,71.43
2016-08-30T06:29:31.645Z,71.43
2016-08-30T06:30:31.103Z,71.78
2016-08-30T06:31:31.149Z,72.3
2016-08-30T06:32:31.049Z,72.36
2016-08-30T06:33:31.050Z,72.17
2016-08-30T06:34:31.006Z,72.39
2016-08-30T06:36:31.003Z,71.43
2016-08-30T06:37:45.633Z,71.24
2016-08-30T06:38:30.915Z,71.53
2016-08-30T06:39:45.581Z,71.24
2016-08-30T06:40:30.882Z,71.18
2016-08-30T06:41:30.835Z,70.86
2016-08-30T06:42:30.816Z,70.7
2016-08-30T06:43:45.475Z,71.47
2016-08-30T06:44:30.755Z,71.53
2016-08-30T06:45:30.733Z,71.08
2016-08-30T06:46:30.721Z,70.89
2016-08-30T06:47:30.670Z,70.98
2016-08-30T06:48:30.670Z,70.6
2016-08-30T06:49:30.662Z,70.5
2016-08-30T06:50:30.629Z,70.98
2016-08-30T06:51:30.586Z,70.15
2016-08-30T06:52:30.547Z,68.8
2016-08-30T06:53:31.292Z,69.23
2016-08-30T06:55:30.484Z,70.06
2016-08-30T06:56:30.554Z,69.19
2016-08-30T06:57:30.585Z,69.38
2016-08-30T06:58:30.498Z,69.29
2016-08-30T06:59:30.377Z,69.87
2016-08-30T07:00:30.344Z,70.64
2016-08-30T07:01:30.324Z,70.73
2016-08-30T07:02:30.347Z,70.73
2016-08-30T07:03:30.282Z,70.73
2016-08-30T07:04:30.240Z,70.06
2016-08-30T07:05:30.232Z,69.29
2016-08-30T07:06:30.195Z,69.13
2016-08-30T07:07:30.168Z,69.9
2016-08-30T07:08:30.168Z,69.29
2016-08-30T07:09:30.140Z,70.19
2016-08-30T07:10:30.109Z,69.9
2016-08-30T07:11:30.095Z,70.19
2016-08-30T07:12:30.059Z,70
2016-08-30T07:13:30.029Z,69.8
2016-08-30T07:14:29.996Z,70.76
2016-08-30T07:15:29.968Z,70
2016-08-30T07:16:29.998Z,69.8
2016-08-30T07:17:29.946Z,70.35
2016-08-30T07:18:29.883Z,69.8
2016-08-30T07:19:29.875Z,70.19
2016-08-30T07:20:29.908Z,70.06
2016-08-30T07:21:29.840Z,70.38
2016-08-30T07:23:30.152Z,70.86
2016-08-30T07:25:30.890Z,69.51
2016-08-30T07:26:29.699Z,69.07
2016-08-30T07:27:29.730Z,69.64
2016-08-30T07:28:29.645Z,69.45
2016-08-30T07:29:29.617Z,68.39
2016-08-30T07:30:29.591Z,68.39
2016-08-30T07:31:29.607Z,68.77
2016-08-30T07:32:29.555Z,68.68
2016-08-30T07:33:29.520Z,69.55
2016-08-30T07:34:29.488Z,69.16
2016-08-30T07:35:29.491Z,68.39
2016-08-30T07:36:29.631Z,68.68
2016-08-30T07:37:29.417Z,68.68
2016-08-30T07:38:29.385Z,68.04
2016-08-30T07:39:29.367Z,67.94
2016-08-30T07:40:29.385Z,67.85
2016-08-30T07:41:29.337Z,67.55
2016-08-30T07:42:29.304Z,67.46
2016-08-30T07:43:29.265Z,68.52
2016-08-30T07:44:29.251Z,68.91
2016-08-30T07:45:30.451Z,68.43
2016-08-30T07:46:29.224Z,68.52
2016-08-30T07:47:29.288Z,69.1
2016-08-30T07:48:29.165Z,68.71
2016-08-30T07:49:29.145Z,68.81
2016-08-30T07:50:29.190Z,67.94
2016-08-30T07:51:29.104Z,67.55
2016-08-30T07:52:29.061Z,68.04
2016-08-30T07:53:29.334Z,66.97
2016-08-30T07:54:43.691Z,68.36
2016-08-30T07:55:29.742Z,67.94
2016-08-30T07:56:28.943Z,67.65
2016-08-30T07:57:28.961Z,66.88
2016-08-30T07:58:29.093Z,66.69
2016-08-30T07:59:29.006Z,67.36
2016-08-30T08:00:29.647Z,67.55
2016-08-30T08:01:28.886Z,68.04
2016-08-30T08:02:28.799Z,67.27
2016-08-30T08:03:28.776Z,67.55
2016-08-30T08:04:28.747Z,66.53
2016-08-30T08:05:43.768Z,65.85
2016-08-30T08:06:29.467Z,65.75
2016-08-30T08:07:28.671Z,65.95
2016-08-30T08:08:29.412Z,65.66
2016-08-30T08:09:29.411Z,65.37
2016-08-30T08:10:28.600Z,65.11
2016-08-30T08:11:28.570Z,65.5
2016-08-30T08:12:29.316Z,65.78
2016-08-30T08:13:28.525Z,65.5
2016-08-30T08:15:28.490Z,65.3
2016-08-30T08:16:28.478Z,65.11
2016-08-30T08:17:28.442Z,64.05
2016-08-30T08:18:28.406Z,63.47
2016-08-30T08:19:28.381Z,63.69
2016-08-30T08:20:28.371Z,63.11
2016-08-30T08:21:29.135Z,63.89
2016-08-30T08:22:28.651Z,63.89
2016-08-30T08:23:28.302Z,63.31
2016-08-30T08:24:28.261Z,62.73
2016-08-30T08:25:28.256Z,63.21
2016-08-30T08:26:28.215Z,63.98
2016-08-30T08:27:28.185Z,63.02
2016-08-30T08:28:28.170Z,63.21
2016-08-30T08:29:28.172Z,63.5
2016-08-30T08:30:28.103Z,63.56
2016-08-30T08:31:28.092Z,63.6
2016-08-30T08:32:28.085Z,63.4
2016-08-30T08:33:28.040Z,63.98
2016-08-30T08:34:42.707Z,61.27
2016-08-30T08:35:28.017Z,61.86
2016-08-30T08:36:27.969Z,61.86
2016-08-30T08:37:27.947Z,62.53
2016-08-30T08:38:27.959Z,62.92
2016-08-30T08:39:27.948Z,61.08
2016-08-30T08:40:28.071Z,60.89
2016-08-30T08:42:08.553Z,59.83
2016-08-30T08:42:27.935Z,60.21
2016-08-30T08:43:42.500Z,60.5
2016-08-30T08:44:28.266Z,60.31
2016-08-30T08:45:31.003Z,60.21
2016-08-30T08:46:28.250Z,59.44
2016-08-30T08:47:27.750Z,60.44
2016-08-30T08:48:27.700Z,59.25
2016-08-30T08:49:27.670Z,60.21
2016-08-30T08:50:27.796Z,60.5
2016-08-30T08:51:27.599Z,59.44
2016-08-30T08:52:27.608Z,57.79
2016-08-30T08:54:27.541Z,58.7
2016-08-30T08:55:27.574Z,58.89
2016-08-30T08:56:27.536Z,57.44
2016-08-30T08:57:27.465Z,57.82
2016-08-30T08:58:27.432Z,58.12
2016-08-30T08:59:27.434Z,58.12
2016-08-30T09:00:28.077Z,57.92
2016-08-30T09:01:27.370Z,58.8
2016-08-30T09:02:42.060Z,58.6
2016-08-30T09:03:27.442Z,59.47
2016-08-30T09:04:27.304Z,58.4
2016-08-30T09:05:28.372Z,57.82
2016-08-30T09:06:28.316Z,58.21
2016-08-30T09:07:27.253Z,58.47
2016-08-30T09:08:27.205Z,59.73
2016-08-30T09:09:27.155Z,59.83
2016-08-30T09:10:27.152Z,59.34
2016-08-30T09:11:27.134Z,59.86
2016-08-30T09:12:27.870Z,60.14
2016-08-30T09:13:27.099Z,59.18
2016-08-30T09:14:27.060Z,58.57
2016-08-30T09:15:27.021Z,58.89
2016-08-30T09:16:27.003Z,58.98
2016-08-30T09:17:26.993Z,58.6
2016-08-30T09:18:27.051Z,58.92
2016-08-30T09:19:26.922Z,58.98
2016-08-30T09:20:26.888Z,58.63
2016-08-30T09:21:26.882Z,58.82
2016-08-30T09:22:26.884Z,59.11
2016-08-30T09:23:26.860Z,59.4
2016-08-30T09:24:26.809Z,57.18
2016-08-30T09:25:28.004Z,56.98
2016-08-30T09:26:26.786Z,55.63
2016-08-30T09:27:27.532Z,56.21
2016-08-30T09:28:26.723Z,56.6
2016-08-30T09:29:26.715Z,56.62
2016-08-30T09:30:26.762Z,56.43
2016-08-30T09:31:27.440Z,56.62
2016-08-30T09:32:26.625Z,57.5
2016-08-30T09:33:26.659Z,57.08
2016-08-30T09:34:26.570Z,57.76
2016-08-30T09:35:26.546Z,57.82
2016-08-30T09:36:26.513Z,57.86
2016-08-30T09:37:26.488Z,57.95
2016-08-30T09:38:26.495Z,57.28
2016-08-30T09:39:27.225Z,56.88
2016-08-30T09:40:26.417Z,55.73
2016-08-30T09:41:26.401Z,56.98
2016-08-30T09:43:26.350Z,56.88
2016-08-30T09:44:26.345Z,58.04
2016-08-30T09:45:26.285Z,57.28
2016-08-30T09:46:26.278Z,57.56
2016-08-30T09:47:26.277Z,57.37
2016-08-30T09:48:26.268Z,56.88
2016-08-30T09:49:27.007Z,55.76
2016-08-30T09:50:26.169Z,56.14
2016-08-30T09:51:26.446Z,56.52
2016-08-30T09:52:26.116Z,56.43
2016-08-30T09:53:26.872Z,55.94
2016-08-30T09:54:26.134Z,55.92
2016-08-30T09:55:26.058Z,56.09
2016-08-30T09:56:27.123Z,56.4
2016-08-30T09:57:26.769Z,57.08
2016-08-30T09:58:40.684Z,56.02
2016-08-30T09:59:26.735Z,56.09
2016-08-30T10:00:26.222Z,57.24
2016-08-30T10:01:25.932Z,56.67
2016-08-30T10:02:25.892Z,56.57
2016-08-30T10:03:25.870Z,56.7
2016-08-30T10:04:25.857Z,58.12
2016-08-30T10:05:25.836Z,57.44
2016-08-30T10:06:27.360Z,57.44
2016-08-30T10:07:29.194Z,57.89
2016-08-30T10:08:26.069Z,57.7
2016-08-30T10:09:26.851Z,58.21
2016-08-30T10:13:44.825Z,56.6
2016-08-30T10:14:43.463Z,56.5
2016-08-30T10:15:43.470Z,56.4
2016-08-30T10:16:43.728Z,55.56
2016-08-30T10:17:43.402Z,54.98
2016-08-30T10:18:58.039Z,54.33
2016-08-30T10:19:43.353Z,54.39
2016-08-30T10:21:43.284Z,56.04
2016-08-30T10:22:57.956Z,55.43
2016-08-30T10:23:43.243Z,55.85
2016-08-30T10:24:49.450Z,55.85
2016-08-30T10:25:43.220Z,54.88
2016-08-30T10:26:43.977Z,54.52
2016-08-30T10:27:43.153Z,54.33
2016-08-30T10:28:43.117Z,54.33
2016-08-30T10:29:43.092Z,54.62
2016-08-30T10:30:43.849Z,54.13
2016-08-30T10:31:43.063Z,52.87
2016-08-30T10:32:43.079Z,53.17
2016-08-30T10:33:43.073Z,52.68
2016-08-30T10:34:42.990Z,52.58
2016-08-30T10:35:42.996Z,51.72
2016-08-30T10:36:42.911Z,52.49
2016-08-30T10:37:42.901Z,52.39
2016-08-30T10:38:42.878Z,52.58
2016-08-30T10:39:42.847Z,52.49
2016-08-30T10:40:42.834Z,51.74
2016-08-30T10:41:42.819Z,51.32
2016-08-30T10:42:42.839Z,52.1
2016-08-30T10:43:43.525Z,52.58
2016-08-30T10:44:42.766Z,52.58
2016-08-30T10:45:42.750Z,50.94
2016-08-30T10:46:42.731Z,49.49
2016-08-30T10:47:43.418Z,50.52
2016-08-30T10:48:42.651Z,51.04
2016-08-30T10:49:42.631Z,51.9
2016-08-30T10:50:42.597Z,51.04
2016-08-30T10:51:42.574Z,50.55
2016-08-30T10:52:42.750Z,50.94
2016-08-30T10:53:42.602Z,51.32
2016-08-30T10:54:42.563Z,50.45
2016-08-30T10:55:42.513Z,50.45
2016-08-30T10:56:42.525Z,50.35
2016-08-30T10:57:42.453Z,50.48
2016-08-30T10:58:42.413Z,50.96
2016-08-30T10:59:42.376Z,50.26
2016-08-30T11:00:42.703Z,49.12
2016-08-30T11:01:42.349Z,49.87
2016-08-30T11:02:42.309Z,50.45
2016-08-30T11:03:42.404Z,50.26
2016-08-30T11:04:42.316Z,50.52
2016-08-30T11:05:42.240Z,49.95
2016-08-30T11:06:42.226Z,50.07
2016-08-30T11:07:42.199Z,47.94
2016-08-30T11:08:42.936Z,48.81
2016-08-30T11:09:42.196Z,47.74
2016-08-30T11:10:42.118Z,49.58
2016-08-30T11:11:42.082Z,50.07
2016-08-30T11:12:42.076Z,50.65
2016-08-30T11:13:42.849Z,49.77
2016-08-30T11:14:42.034Z,49.99
2016-08-30T11:15:41.996Z,49.49
2016-08-30T11:16:42.020Z,49.12
2016-08-30T11:17:41.984Z,49.58
2016-08-30T11:18:41.976Z,47.06
2016-08-30T11:19:41.915Z,47.74
2016-08-30T11:20:41.904Z,49
2016-08-30T11:21:41.841Z,49.39
2016-08-30T11:22:41.841Z,49.19
2016-08-30T11:23:41.809Z,45.73
2016-08-30T11:24:41.782Z,45.92
2016-08-30T11:25:41.755Z,46.22
2016-08-30T11:26:56.451Z,47.55
2016-08-30T11:27:56.420Z,47.55
2016-08-30T11:28:42.004Z,46.19
2016-08-30T11:29:41.826Z,46.58
2016-08-30T11:30:41.877Z,47.55
2016-08-30T11:31:42.221Z,48.03
2016-08-30T11:32:56.348Z,49.32
2016-08-30T11:33:42.024Z,48.83
2016-08-30T11:34:43.058Z,48.93
2016-08-30T11:35:56.248Z,49.61
2016-08-30T11:36:41.496Z,48.64
2016-08-30T11:37:56.178Z,49.39
2016-08-30T11:38:41.588Z,49.9
2016-08-30T11:39:41.453Z,49.8
2016-08-30T11:40:41.418Z,49.7
2016-08-30T11:41:42.253Z,49.8
2016-08-30T11:42:41.390Z,48.66
2016-08-30T11:43:41.330Z,47.19
2016-08-30T11:44:42.126Z,47.09
2016-08-30T11:45:42.103Z,47.38
2016-08-30T11:46:41.275Z,47.84
2016-08-30T11:47:56.239Z,49.32
2016-08-30T11:48:41.851Z,49.12
2016-08-30T11:49:41.207Z,47.77
2016-08-30T11:50:41.951Z,47.2
2016-08-30T11:51:41.138Z,47.19
2016-08-30T11:52:46.448Z,47.36
2016-08-30T11:53:41.109Z,47.96
2016-08-30T11:54:41.900Z,48.54
2016-08-30T11:55:42.911Z,48.74
2016-08-30T11:56:42.328Z,47.67
2016-08-30T11:57:55.712Z,48.64
2016-08-30T11:58:42.551Z,47.79
2016-08-30T11:59:42.301Z,48.18
2016-08-30T12:00:43.814Z,47.79
2016-08-30T12:01:41.694Z,46.82
2016-08-30T12:02:40.883Z,46.04
2016-08-30T12:03:40.894Z,45.78
2016-08-30T12:04:41.763Z,45.97
2016-08-30T12:05:40.819Z,45.02
2016-08-30T12:06:41.560Z,45.43
2016-08-30T12:07:40.777Z,45.62
2016-08-30T12:08:40.748Z,45.04
2016-08-30T12:09:40.746Z,45.92
2016-08-30T12:10:40.719Z,44.85
2016-08-30T12:11:40.701Z,45.14
2016-08-30T12:12:40.683Z,45.62
2016-08-30T12:13:42.304Z,44.97
2016-08-30T12:14:40.675Z,44.58
2016-08-30T12:15:41.392Z,42.15
2016-08-30T12:16:40.585Z,40.97
2016-08-30T12:17:40.556Z,39.45
2016-08-30T12:18:46.881Z,36.69
2016-08-30T12:19:40.505Z,36.1
2016-08-30T12:20:55.234Z,35.53
2016-08-30T12:21:41.283Z,35.02
2016-08-30T12:22:55.161Z,36.55
2016-08-30T12:23:40.456Z,37.29
2016-08-30T12:24:40.585Z,37.87
2016-08-30T12:25:41.167Z,38.44
2016-08-30T12:26:40.352Z,38.44
2016-08-30T12:27:40.327Z,38.62
2016-08-30T12:28:40.772Z,39.29
2016-08-30T12:29:56.325Z,39.69
2016-08-30T12:30:40.405Z,39.86
2016-08-30T12:32:40.211Z,40.33
2016-08-30T12:33:41.452Z,40.33
2016-08-30T12:34:40.192Z,40.21
2016-08-30T12:35:40.147Z,40.23
2016-08-30T12:36:40.188Z,39.92
2016-08-30T12:37:40.094Z,40.31
2016-08-30T12:38:40.851Z,41.45
2016-08-30T12:39:40.075Z,41.77
2016-08-30T12:40:40.044Z,41.84
2016-08-30T12:41:40.046Z,40.97
2016-08-30T12:42:39.983Z,40.19
2016-08-30T12:43:40.024Z,40.66
2016-08-30T12:44:39.950Z,40.67
2016-08-30T12:45:39.979Z,40.85
2016-08-30T12:46:39.903Z,40.77
2016-08-30T12:47:39.885Z,40.97
2016-08-30T12:48:40.631Z,40.87
2016-08-30T12:49:39.856Z,39.88
2016-08-30T12:50:39.798Z,40.26
2016-08-30T12:51:39.795Z,40.56
2016-08-30T12:52:39.775Z,40.17
2016-08-30T12:53:54.739Z,40.26
2016-08-30T12:54:39.709Z,41.06
2016-08-30T12:55:39.684Z,41.45
2016-08-30T12:56:40.437Z,40.09
2016-08-30T12:57:39.694Z,40.36
2016-08-30T12:58:39.622Z,39.51
2016-08-30T12:59:39.587Z,39.9
2016-08-30T13:00:39.582Z,40.48
2016-08-30T13:01:39.563Z,40.39
2016-08-30T13:02:39.534Z,40.67
2016-08-30T13:03:39.513Z,41.36
2016-08-30T13:04:39.478Z,41.06
2016-08-30T13:05:39.948Z,40.19
2016-08-30T13:06:40.514Z,40.97
2016-08-30T13:07:39.583Z,39.7
2016-08-30T13:08:39.392Z,40
2016-08-30T13:09:39.397Z,40.31
2016-08-30T13:10:40.126Z,38.46
2016-08-30T13:11:39.660Z,38.67
2016-08-30T13:12:39.362Z,38.01
2016-08-30T13:13:39.272Z,38.11
2016-08-30T13:14:39.285Z,36.93
2016-08-30T13:15:39.315Z,38.57
2016-08-30T13:16:39.237Z,38.87
2016-08-30T13:17:39.352Z,38.48
2016-08-30T13:18:39.505Z,38.95
2016-08-30T13:19:39.157Z,38.48
2016-08-30T13:20:39.935Z,39.04
2016-08-30T13:21:39.102Z,38.87
2016-08-30T13:22:39.085Z,39.45
2016-08-30T13:23:39.157Z,39.16
2016-08-30T13:24:39.169Z,38.57
2016-08-30T13:25:39.055Z,39.26
2016-08-30T13:26:39.012Z,39.82
2016-08-30T13:27:53.673Z,39.92
2016-08-30T13:28:38.987Z,38.96
2016-08-30T13:29:38.937Z,38.5
2016-08-30T13:30:38.904Z,38.23
2016-08-30T13:31:38.899Z,37.74
2016-08-30T13:33:38.893Z,36.22
2016-08-30T13:34:39.142Z,36.53
2016-08-30T13:35:39.560Z,34.16